Terminal Aerodrome Forecast
Issued by NWS

Home | Current Version | Previous Version | Text Only | Print | Product List | Glossary On
Versions: 1 2 3 4 5 6 7 8 9 10 11 12 13 14 15
000
FTUS43 KGRB 250500
TAFCWA
TAF
KCWA 250530Z 2506/2606 17003KT P6SM SCT060 BKN120 WS010/23030KT
     FM251400 18009G17KT P6SM SCT040 BKN090
     FM252100 19011KT P6SM SCT035 BKN070
      TEMPO 2522/2602 6SM SHRA BKN035
     FM260200 19003KT 5SM -SHRA BR SCT018 BKN030
      AMD LTD TO CLD VIS AND WIND TIL 251200=

USA.gov is the U.S. government's official web portal to all federal, state and local government web resources and services.